Time;durP1;ratioP1;P1;durP2;ratioP2;P2;SDS_P1;SDS_P2;PMS_P1;PMS_P2;Temp;Humidity;BMP_temperature;BMP_pressure;BME280_temperature;BME280_humidity;BME280_pressure;Samples;Min_cycle;Max_cycle;Signal;HPM_P1;HPM_P2
2021/09/07 00:00:28;;;;;;;5.07;2.90;;;;;;;29.44;57.66;100827.75;5079339;27;69459;-37
2021/09/07 00:03:00;;;;;;;3.00;2.80;;;;;;;29.44;58.51;100821.53;5072308;27;66608;-37
2021/09/07 00:05:31;;;;;;;7.77;3.17;;;;;;;29.50;59.89;100826.06;5084195;27;69947;-37
2021/09/07 00:08:03;;;;;;;4.80;3.55;;;;;;;29.62;60.29;100837.91;5077799;27;66128;-37
2021/09/07 00:10:34;;;;;;;3.83;3.53;;;;;;;29.60;60.55;100839.97;5077137;27;69954;-38
2021/09/07 00:13:06;;;;;;;5.30;3.33;;;;;;;29.68;60.93;100845.19;5084632;27;65156;-37
2021/09/07 00:15:39;;;;;;;4.25;3.25;;;;;;;29.72;61.38;100850.97;5080911;27;69884;-38
2021/09/07 00:18:13;;;;;;;4.13;3.83;;;;;;;29.76;61.40;100846.81;5076737;27;66216;-38
2021/09/07 00:20:45;;;;;;;3.72;3.42;;;;;;;29.77;61.82;100849.31;5075723;27;69628;-37
2021/09/07 00:23:20;;;;;;;7.03;3.45;;;;;;;29.76;61.91;100842.25;5084632;27;66693;-38
2021/09/07 00:25:53;;;;;;;3.53;3.33;;;;;;;29.82;62.72;100857.59;5075908;27;69921;-37
2021/09/07 00:28:26;;;;;;;5.90;4.03;;;;;;;29.84;62.78;100858.22;5068335;27;66406;-38
2021/09/07 00:31:02;;;;;;;4.70;4.28;;;;;;;29.87;62.45;100851.56;5089806;27;70208;-38
2021/09/07 00:33:44;;;;;;;4.57;4.18;;;;;;;29.82;63.36;100849.50;5077608;27;66491;-38
2021/09/07 00:36:22;;;;;;;5.45;4.22;;;;;;;29.89;63.03;100872.97;5076865;27;69931;-38
2021/09/07 00:38:54;;;;;;;7.13;4.22;;;;;;;29.92;63.36;100872.53;5084105;27;65612;-37
2021/09/07 00:41:30;;;;;;;5.75;4.60;;;;;;;29.90;63.97;100869.25;5081309;27;71114;-39
2021/09/07 00:44:36;;;;;;;8.48;4.88;;;;;;;29.83;64.33;100874.66;5063274;27;66470;-38
2021/09/07 00:47:11;;;;;;;5.00;4.55;;;;;;;29.95;63.59;100878.38;5092765;27;69883;-38
2021/09/07 00:49:59;;;;;;;5.07;4.67;;;;;;;29.95;63.88;100882.94;5086823;27;66170;-37
2021/09/07 00:52:34;;;;;;;5.03;4.53;;;;;;;29.98;64.38;100871.72;5079865;27;70470;-37
2021/09/07 00:55:41;;;;;;;4.65;4.25;;;;;;;29.89;64.05;100873.78;5087014;27;65023;-38
2021/09/07 00:58:37;;;;;;;4.53;4.15;;;;;;;29.98;64.22;100860.88;5086166;27;70543;-37
2021/09/07 01:01:20;;;;;;;7.95;4.30;;;;;;;29.99;64.42;100873.34;5084656;27;65711;-39
2021/09/07 01:04:23;;;;;;;4.70;4.40;;;;;;;29.97;65.11;100881.66;5050451;27;68877;-38
2021/09/07 01:07:07;;;;;;;4.57;4.18;;;;;;;29.88;65.21;100871.31;5088318;27;66320;-38
2021/09/07 01:09:50;;;;;;;4.80;4.40;;;;;;;29.98;65.40;100877.13;5079093;27;69761;-37
2021/09/07 01:12:40;;;;;;;4.63;4.05;;;;;;;29.61;65.80;100818.16;5078500;27;66039;-37
2021/09/07 01:15:48;;;;;;;5.50;5.10;;;;;;;29.76;65.52;100826.03;5075435;27;69269;-37
2021/09/07 01:18:30;;;;;;;4.70;4.40;;;;;;;29.82;65.38;100829.75;5079382;27;65243;-37
2021/09/07 01:21:18;;;;;;;5.57;4.43;;;;;;;30.06;66.04;100864.19;5078794;27;70650;-41
2021/09/07 01:23:59;;;;;;;6.22;4.15;;;;;;;29.95;65.42;100839.66;5071587;27;65076;-37
2021/09/07 01:26:45;;;;;;;4.63;4.20;;;;;;;30.15;65.09;100866.63;5061086;27;69318;-38
2021/09/07 01:29:21;;;;;;;16.60;15.02;;;;;;;30.15;65.14;100867.47;5066151;27;66049;-38
2021/09/07 01:32:16;;;;;;;26.42;23.65;;;;;;;30.18;65.64;100872.44;5067498;27;69154;-38
2021/09/07 01:35:07;;;;;;;20.65;17.23;;;;;;;29.84;65.99;100828.50;5062230;27;66104;-38
2021/09/07 01:38:07;;;;;;;31.77;23.80;;;;;;;30.12;66.01;100856.25;5083648;27;69633;-38
2021/09/07 01:41:08;;;;;;;37.05;27.38;;;;;;;30.24;66.60;100863.47;5073108;27;66596;-37
2021/09/07 01:43:53;;;;;;;18.55;16.13;;;;;;;30.27;65.70;100854.94;5069924;27;69983;-38
2021/09/07 01:46:30;;;;;;;23.67;15.40;;;;;;;30.28;65.62;100845.78;5068109;27;65159;-38
2021/09/07 01:49:16;;;;;;;12.48;9.20;;;;;;;30.23;64.93;100826.66;5086545;27;69472;-38
2021/09/07 01:51:54;;;;;;;14.50;11.05;;;;;;;30.38;65.85;100849.88;5081279;27;65808;-37
2021/09/07 01:54:40;;;;;;;17.23;11.43;;;;;;;30.36;65.58;100830.31;5080294;27;70169;-37
2021/09/07 01:57:20;;;;;;;16.83;13.13;;;;;;;30.40;66.01;100837.78;5083093;27;65796;-37
2021/09/07 01:59:59;;;;;;;21.73;17.17;;;;;;;30.43;66.31;100837.34;5083150;27;69443;-39
2021/09/07 02:02:59;;;;;;;14.52;11.38;;;;;;;30.42;66.17;100842.97;5057836;27;66137;-36
2021/09/07 02:05:49;;;;;;;20.60;14.18;;;;;;;30.48;66.42;100839.41;5072117;27;70121;-38
2021/09/07 02:08:37;;;;;;;15.30;11.10;;;;;;;30.12;66.56;100781.31;5019547;27;66808;-36
2021/09/07 02:11:26;;;;;;;9.48;8.60;;;;;;;30.51;66.08;100849.81;5053784;27;69460;-38
2021/09/07 02:14:17;;;;;;;8.75;8.05;;;;;;;30.50;66.07;100837.28;5071557;27;65290;-38
2021/09/07 02:17:08;;;;;;;7.43;6.75;;;;;;;30.58;65.27;100839.75;5060047;27;69641;-38
2021/09/07 02:19:55;;;;;;;5.40;5.10;;;;;;;30.53;64.15;100830.63;5044914;28;65255;-39
2021/09/07 02:22:45;;;;;;;5.60;5.05;;;;;;;30.59;65.02;100833.28;5055051;27;70167;-38
2021/09/07 02:25:25;;;;;;;5.50;5.10;;;;;;;30.44;65.06;100794.88;5064732;27;65528;-37
2021/09/07 02:28:03;;;;;;;7.10;6.40;;;;;;;30.57;65.57;100816.44;5078905;27;70618;-38
2021/09/07 02:30:41;;;;;;;6.07;5.47;;;;;;;30.64;64.79;100817.19;5050520;28;66304;-37
2021/09/07 02:33:18;;;;;;;6.93;4.47;;;;;;;30.69;64.62;100811.13;5046254;27;70162;-38
2021/09/07 02:35:52;;;;;;;5.00;4.60;;;;;;;30.71;64.48;100801.75;5079667;27;66680;-38
2021/09/07 02:38:41;;;;;;;6.90;5.00;;;;;;;30.65;65.00;100802.63;5058300;27;69731;-38
2021/09/07 02:41:25;;;;;;;5.80;5.40;;;;;;;30.75;64.81;100809.41;5059873;27;66256;-38
2021/09/07 02:44:06;;;;;;;5.13;4.68;;;;;;;30.72;64.80;100808.81;5040827;27;70149;-38
2021/09/07 02:46:58;;;;;;;6.00;5.60;;;;;;;30.71;64.74;100800.91;5052851;28;65665;-38
2021/09/07 02:49:37;;;;;;;5.57;5.18;;;;;;;30.78;65.08;100801.66;5067220;27;70161;-38
2021/09/07 02:52:24;;;;;;;5.57;4.82;;;;;;;30.80;64.63;100798.78;5038197;27;66399;-38
2021/09/07 02:55:14;;;;;;;4.25;3.95;;;;;;;30.68;63.66;100769.69;5039550;27;69259;-38
2021/09/07 02:57:50;;;;;;;6.15;4.28;;;;;;;30.90;64.96;100805.34;5078670;27;66566;-37
2021/09/07 03:00:28;;;;;;;5.95;5.13;;;;;;;30.93;63.74;100806.81;5068836;27;69417;-38
2021/09/07 03:03:25;;;;;;;11.25;7.63;;;;;;;30.91;63.97;100795.34;5074759;27;65494;-37
2021/09/07 03:06:09;;;;;;;12.13;7.85;;;;;;;30.93;63.93;100798.66;5057227;27;70566;-38
2021/09/07 03:08:43;;;;;;;6.00;4.80;;;;;;;30.96;63.72;100792.81;5075509;27;65787;-37
2021/09/07 03:11:23;;;;;;;4.90;4.50;;;;;;;30.95;62.72;100785.72;5071135;27;70234;-37
2021/09/07 03:13:59;;;;;;;4.20;3.83;;;;;;;30.91;62.83;100781.81;5081337;27;65557;-39
2021/09/07 03:16:42;;;;;;;8.32;4.38;;;;;;;30.88;63.55;100774.13;5074163;27;69387;-38
2021/09/07 03:19:22;;;;;;;4.70;4.20;;;;;;;30.97;63.25;100772.78;5076550;27;65725;-37
2021/09/07 03:21:57;;;;;;;5.10;3.90;;;;;;;31.07;63.17;100786.66;5073932;27;70436;-37
2021/09/07 03:24:32;;;;;;;8.63;5.40;;;;;;;31.09;63.49;100789.97;5071450;27;65663;-37
2021/09/07 03:27:12;;;;;;;9.38;5.22;;;;;;;31.08;63.83;100773.94;5081692;27;70012;-37
2021/09/07 03:29:46;;;;;;;5.50;4.97;;;;;;;31.15;63.76;100780.13;5057782;27;65828;-37
2021/09/07 03:32:29;;;;;;;5.03;4.63;;;;;;;31.20;63.96;100777.53;5056894;27;70125;-37
2021/09/07 03:35:10;;;;;;;4.83;4.40;;;;;;;31.24;63.75;100786.88;5074124;27;68260;-38
2021/09/07 03:37:49;;;;;;;7.20;3.65;;;;;;;31.21;63.30;100778.41;5081744;27;69923;-37
2021/09/07 03:40:22;;;;;;;6.57;3.30;;;;;;;31.24;63.35;100769.81;5066354;27;66282;-36
2021/09/07 03:43:02;;;;;;;4.55;4.15;;;;;;;31.23;63.46;100765.41;5060454;27;70180;-36
2021/09/07 03:45:40;;;;;;;5.03;4.60;;;;;;;31.27;64.44;100772.06;5082480;27;66767;-37
2021/09/07 03:48:15;;;;;;;7.63;5.68;;;;;;;31.36;64.39;100766.13;5083479;27;70123;-37
2021/09/07 03:50:52;;;;;;;6.93;5.40;;;;;;;31.37;65.00;100767.81;5076557;27;65384;-37
2021/09/07 03:53:28;;;;;;;5.75;5.25;;;;;;;31.39;65.40;100771.09;5075163;27;70377;-37
2021/09/07 03:56:03;;;;;;;4.30;4.00;;;;;;;31.34;63.88;100761.97;5044626;27;66549;-38
2021/09/07 03:58:38;;;;;;;4.13;3.83;;;;;;;31.39;64.02;100770.28;5070944;27;69968;-37
2021/09/07 04:01:12;;;;;;;4.80;4.40;;;;;;;31.38;64.62;100774.88;5077462;27;66805;-38
2021/09/07 04:03:44;;;;;;;6.80;4.22;;;;;;;31.35;65.18;100761.75;5076551;27;69349;-37
2021/09/07 04:06:20;;;;;;;7.07;4.53;;;;;;;31.39;65.23;100754.00;5077156;27;66198;-38
2021/09/07 04:08:53;;;;;;;4.68;4.25;;;;;;;31.48;65.17;100757.25;5077857;27;70234;-37
2021/09/07 04:11:27;;;;;;;4.28;3.88;;;;;;;31.51;65.64;100757.63;5074792;27;66450;-38
2021/09/07 04:14:04;;;;;;;4.20;3.80;;;;;;;31.53;65.42;100750.06;5079904;27;70338;-38
2021/09/07 04:16:40;;;;;;;3.72;3.42;;;;;;;31.54;65.01;100762.59;5078597;27;66254;-38
2021/09/07 04:19:12;;;;;;;3.60;3.30;;;;;;;31.54;65.00;100753.66;5080712;27;70231;-38
2021/09/07 04:21:46;;;;;;;14.45;3.95;;;;;;;31.47;65.12;100740.16;5073889;27;65674;-38
2021/09/07 04:24:19;;;;;;;4.45;3.25;;;;;;;31.54;64.69;100749.03;5080730;27;69521;-38
2021/09/07 04:26:54;;;;;;;3.45;3.17;;;;;;;31.54;64.35;100751.75;5075319;27;66440;-38
2021/09/07 04:29:27;;;;;;;3.30;3.10;;;;;;;31.56;64.27;100749.63;5080335;27;70466;-38
2021/09/07 04:31:59;;;;;;;3.35;3.05;;;;;;;31.57;64.08;100755.91;5078063;27;66090;-38
2021/09/07 04:34:32;;;;;;;3.00;2.80;;;;;;;31.58;63.67;100747.50;5074758;27;69310;-39
2021/09/07 04:37:04;;;;;;;3.20;3.00;;;;;;;31.57;63.63;100745.88;5082880;27;65673;-38
2021/09/07 04:39:36;;;;;;;2.60;2.40;;;;;;;31.56;63.60;100738.78;5073349;27;70316;-37
2021/09/07 04:42:09;;;;;;;3.45;3.15;;;;;;;31.57;63.60;100729.59;5058195;27;66215;-38
2021/09/07 04:44:42;;;;;;;3.40;3.10;;;;;;;31.59;63.24;100716.66;5084961;27;69552;-38
2021/09/07 04:47:14;;;;;;;3.53;3.22;;;;;;;31.62;63.24;100723.47;5091674;27;66367;-38
2021/09/07 04:49:46;;;;;;;3.50;3.30;;;;;;;31.60;62.91;100723.72;5077665;27;69518;-39
2021/09/07 04:52:21;;;;;;;;;;;;;;;31.44;63.49;100718.09;5073868;27;66316;-37
2021/09/07 04:54:54;;;;;;;5.22;4.82;;;;;;;31.66;62.11;100710.31;5086691;27;70086;-37
2021/09/07 04:57:25;;;;;;;;;;;;;;;31.57;62.71;100718.75;5084091;27;65238;-43
2021/09/07 04:59:57;;;;;;;5.18;4.75;;;;;;;31.77;62.52;100723.09;5080641;27;70683;-37
2021/09/07 05:02:28;;;;;;;;;;;;;;;31.65;62.28;100716.75;5081299;27;65948;-36
2021/09/07 05:05:08;;;;;;;7.28;4.18;;;;;;;31.58;62.02;100668.06;5079793;27;70836;-37
2021/09/07 05:07:41;;;;;;;5.28;4.88;;;;;;;31.79;62.23;100704.69;5085521;27;65427;-37
2021/09/07 05:10:14;;;;;;;7.68;4.82;;;;;;;31.89;62.72;100698.69;5066898;27;70140;-37
2021/09/07 05:12:46;;;;;;;4.47;3.95;;;;;;;31.94;62.87;100688.84;5084005;27;66078;-37
2021/09/07 05:15:19;;;;;;;4.10;3.80;;;;;;;31.94;62.59;100696.97;5093806;27;69612;-37
2021/09/07 05:17:54;;;;;;;5.53;3.70;;;;;;;31.85;61.17;100686.69;5085744;27;65143;-38
2021/09/07 05:20:28;;;;;;;3.65;3.35;;;;;;;31.73;60.76;100681.19;5081795;27;70289;-38
2021/09/07 05:23:00;;;;;;;4.78;3.70;;;;;;;31.60;59.73;100669.50;5075938;27;65276;-37
2021/09/07 05:25:32;;;;;;;5.45;3.50;;;;;;;31.46;59.47;100681.59;5080567;27;70230;-38
2021/09/07 05:28:09;;;;;;;11.82;3.42;;;;;;;31.39;58.55;100673.50;5088671;27;65554;-38
2021/09/07 05:30:42;;;;;;;6.57;3.10;;;;;;;31.30;58.17;100658.59;5081369;27;66944;-39
2021/09/07 05:33:14;;;;;;;4.55;3.40;;;;;;;31.37;57.20;100658.53;5088512;27;66092;-38
2021/09/07 05:35:47;;;;;;;7.40;3.75;;;;;;;31.33;56.38;100646.47;5077361;27;70045;-39
2021/09/07 05:38:22;;;;;;;3.65;3.35;;;;;;;31.26;54.88;100640.31;5084261;27;65283;-38
2021/09/07 05:40:55;;;;;;;10.52;3.50;;;;;;;31.28;54.31;100627.38;5088134;27;70028;-37
2021/09/07 05:43:29;;;;;;;18.05;3.40;;;;;;;31.27;54.57;100633.84;5085184;27;65347;-38
2021/09/07 05:46:01;;;;;;;7.28;3.53;;;;;;;31.22;53.67;100622.88;5085814;27;70532;-38
2021/09/07 05:48:34;;;;;;;7.53;2.90;;;;;;;31.16;53.29;100613.78;5078758;27;66390;-37
2021/09/07 05:51:07;;;;;;;7.60;3.30;;;;;;;31.13;52.39;100609.63;5089882;27;70670;-37
2021/09/07 05:53:40;;;;;;;12.65;3.25;;;;;;;31.12;51.96;100607.13;5080228;27;65318;-38
2021/09/07 05:56:17;;;;;;;4.15;3.75;;;;;;;31.10;52.06;100588.41;5086106;27;70295;-37
2021/09/07 05:58:50;;;;;;;3.65;3.45;;;;;;;31.11;51.14;100589.25;5090668;27;66242;-37
2021/09/07 06:01:23;;;;;;;4.05;3.22;;;;;;;31.09;51.10;100575.94;5061913;27;69279;-37
2021/09/07 06:03:56;;;;;;;4.07;3.78;;;;;;;31.08;50.49;100571.56;5081687;27;66088;-37
2021/09/07 06:06:29;;;;;;;3.05;2.85;;;;;;;31.06;50.19;100557.41;5079060;27;69822;-38
2021/09/07 06:09:02;;;;;;;3.20;2.97;;;;;;;31.06;48.97;100553.88;5074797;27;65971;-37
2021/09/07 06:11:34;;;;;;;5.55;3.17;;;;;;;31.04;48.73;100540.59;5088403;27;69630;-37
2021/09/07 06:14:11;;;;;;;3.05;2.80;;;;;;;31.05;48.97;100539.50;5082549;27;66172;-40
2021/09/07 06:16:50;;;;;;;4.78;3.30;;;;;;;31.03;47.97;100528.06;5081329;27;69938;-38
2021/09/07 06:19:23;;;;;;;3.95;3.65;;;;;;;31.03;48.01;100525.38;5078339;27;65364;-38
2021/09/07 06:21:55;;;;;;;3.50;3.30;;;;;;;31.01;47.24;100519.38;5078321;27;69364;-38
2021/09/07 06:24:28;;;;;;;2.83;2.63;;;;;;;31.00;46.70;100520.41;5077373;27;66392;-38
2021/09/07 06:27:00;;;;;;;2.95;2.75;;;;;;;30.99;47.10;100509.81;5092294;27;69177;-37
2021/09/07 06:29:33;;;;;;;3.88;3.58;;;;;;;30.94;46.56;100497.78;5078534;27;67012;-38
2021/09/07 06:32:09;;;;;;;3.50;3.20;;;;;;;31.03;46.95;100501.00;5084055;27;69941;-37
2021/09/07 06:34:45;;;;;;;3.45;3.20;;;;;;;30.61;45.89;100422.41;5080688;27;65771;-38
2021/09/07 06:37:19;;;;;;;3.13;2.92;;;;;;;31.06;45.51;100494.28;5063485;27;70369;-38
2021/09/07 06:39:51;;;;;;;5.95;3.58;;;;;;;31.09;45.20;100477.56;5079742;27;67080;-37
2021/09/07 06:42:24;;;;;;;5.20;2.90;;;;;;;31.08;45.91;100459.66;5063125;27;72010;-39
2021/09/07 06:45:11;;;;;;;3.58;3.28;;;;;;;31.14;45.75;100456.84;5057282;28;64959;-36
2021/09/07 06:47:50;;;;;;;3.47;3.25;;;;;;;31.17;45.87;100452.84;5088726;27;70624;-37
2021/09/07 06:50:34;;;;;;;3.55;3.35;;;;;;;31.19;45.69;100456.16;5079531;27;66625;-36
2021/09/07 06:53:11;;;;;;;3.90;3.53;;;;;;;31.26;45.25;100450.63;5073989;27;70331;-36
2021/09/07 06:55:45;;;;;;;3.10;2.90;;;;;;;31.24;44.90;100450.06;5081116;27;64995;-36
2021/09/07 06:58:27;;;;;;;3.20;2.90;;;;;;;31.29;45.04;100442.88;5088719;27;69296;-36
2021/09/07 07:01:00;;;;;;;3.45;3.22;;;;;;;31.34;44.81;100442.16;5086145;27;67637;-37
2021/09/07 07:03:33;;;;;;;3.15;2.95;;;;;;;31.37;44.44;100431.72;5068861;27;72219;-38
2021/09/07 07:06:10;;;;;;;4.25;3.22;;;;;;;31.40;45.02;100425.00;5027229;27;66325;-39
2021/09/07 07:08:45;;;;;;;3.30;3.10;;;;;;;31.20;44.32;100381.13;5077272;27;70005;-36
2021/09/07 07:11:24;;;;;;;3.67;3.47;;;;;;;31.39;44.08;100390.81;5064288;27;64653;-37
2021/09/07 07:13:57;;;;;;;3.97;2.95;;;;;;;31.46;44.22;100402.38;5072037;27;70062;-36
2021/09/07 07:16:37;;;;;;;3.25;3.05;;;;;;;31.48;43.96;100402.13;5080919;27;66228;-37
2021/09/07 07:19:11;;;;;;;3.30;2.90;;;;;;;31.50;43.92;100403.53;5054946;27;69403;-37
2021/09/07 07:21:48;;;;;;;3.28;3.08;;;;;;;31.50;43.92;100397.31;5068282;27;66134;-38
2021/09/07 07:24:21;;;;;;;3.65;3.35;;;;;;;31.55;46.26;100390.09;5075242;27;70412;-37
2021/09/07 07:27:04;;;;;;;3.65;3.42;;;;;;;31.54;46.36;100388.47;5070170;27;66275;-38
2021/09/07 07:29:43;;;;;;;2.95;2.75;;;;;;;31.60;45.70;100384.81;5081035;27;69842;-37
2021/09/07 07:32:18;;;;;;;7.32;3.53;;;;;;;31.65;45.61;100373.25;5075100;27;66218;-37
2021/09/07 07:34:55;;;;;;;8.73;3.10;;;;;;;31.61;46.12;100372.06;5084580;27;69031;-37
2021/09/07 07:37:32;;;;;;;7.25;3.20;;;;;;;31.65;45.87;100365.13;5081023;27;66389;-37
2021/09/07 07:40:07;;;;;;;4.68;3.17;;;;;;;31.69;45.10;100362.75;5069770;27;69996;-37
2021/09/07 07:42:47;;;;;;;3.80;3.50;;;;;;;31.67;44.77;100349.41;5076814;27;65411;-37
2021/09/07 07:45:32;;;;;;;4.07;3.67;;;;;;;31.72;43.98;100351.44;5076421;27;70401;-36
2021/09/07 07:48:06;;;;;;;6.35;3.45;;;;;;;31.78;44.85;100350.47;5083580;27;65466;-38
2021/09/07 07:50:43;;;;;;;6.60;3.83;;;;;;;31.73;45.07;100312.38;5062558;27;71269;-37
2021/09/07 07:53:16;;;;;;;4.22;3.83;;;;;;;31.99;45.94;100339.00;5044437;27;66415;-38
2021/09/07 07:55:50;;;;;;;3.65;3.35;;;;;;;32.05;46.20;100340.75;5081611;27;70456;-37
2021/09/07 07:58:30;;;;;;;4.03;3.72;;;;;;;31.84;47.25;100311.53;5067368;27;66381;-39
2021/09/07 08:01:12;;;;;;;7.13;3.33;;;;;;;32.17;48.18;100353.44;5089034;27;70543;-38
2021/09/07 08:04:07;;;;;;;13.80;4.07;;;;;;;32.35;51.29;100361.41;5086847;27;67996;-39
2021/09/07 08:06:44;;;;;;;13.93;4.30;;;;;;;32.51;52.66;100367.97;5089531;27;69942;-37
2021/09/07 08:09:21;;;;;;;4.78;4.32;;;;;;;32.54;54.25;100358.50;5077432;27;66289;-38
2021/09/07 08:11:58;;;;;;;4.38;4.07;;;;;;;32.69;54.88;100356.06;5083251;27;69285;-37
2021/09/07 08:14:37;;;;;;;4.70;4.40;;;;;;;32.82;55.99;100361.19;5081616;27;66594;-38
2021/09/07 08:17:13;;;;;;;5.20;4.90;;;;;;;32.73;55.69;100327.34;5084090;27;70054;-40
2021/09/07 08:19:48;;;;;;;5.75;5.35;;;;;;;32.98;56.26;100369.59;5062501;27;65996;-36
2021/09/07 08:22:26;;;;;;;6.80;6.30;;;;;;;33.08;56.46;100364.34;5082122;27;69192;-36
2021/09/07 08:25:03;;;;;;;6.18;5.78;;;;;;;33.19;56.77;100366.16;5080200;27;65328;-38
2021/09/07 08:27:40;;;;;;;6.35;5.85;;;;;;;33.27;56.10;100368.47;5081164;27;69961;-39
2021/09/07 08:30:19;;;;;;;5.15;4.85;;;;;;;33.35;57.00;100368.03;5060794;27;65377;-37
2021/09/07 08:32:54;;;;;;;6.32;5.80;;;;;;;33.41;56.58;100357.25;5076405;27;69816;-37
2021/09/07 08:35:36;;;;;;;6.30;5.70;;;;;;;33.46;57.03;100357.28;5080943;27;66649;-37
2021/09/07 08:38:18;;;;;;;5.57;5.25;;;;;;;33.50;56.83;100355.72;5075725;27;69548;-36
2021/09/07 08:41:01;;;;;;;42.72;12.77;;;;;;;33.56;57.78;100349.31;5078931;27;67633;-36
2021/09/07 08:43:39;;;;;;;175.40;40.80;;;;;;;33.63;56.73;100347.25;5079919;27;69751;-37
2021/09/07 08:46:20;;;;;;;198.48;53.10;;;;;;;33.65;58.39;100347.78;5076515;27;66195;-37
2021/09/07 08:49:16;;;;;;;148.93;39.28;;;;;;;33.71;57.38;100338.66;5077614;27;70124;-38
2021/09/07 08:51:56;;;;;;;74.10;23.70;;;;;;;33.68;58.30;100338.31;5068715;27;65192;-37
2021/09/07 08:54:29;;;;;;;41.67;16.23;;;;;;;33.68;58.08;100352.72;5083738;27;70839;-38
2021/09/07 08:57:05;;;;;;;19.98;10.93;;;;;;;33.56;59.10;100361.00;5077053;27;65783;-45
2021/09/07 08:59:42;;;;;;;17.23;8.90;;;;;;;33.52;59.11;100349.00;5078520;27;70406;-37
2021/09/07 09:02:25;;;;;;;13.00;8.65;;;;;;;33.57;59.02;100345.50;5060683;27;66457;-37
2021/09/07 09:05:00;;;;;;;11.48;9.65;;;;;;;33.55;59.25;100347.69;5080649;27;69653;-39
2021/09/07 09:07:38;;;;;;;74.05;27.33;;;;;;;33.56;59.50;100343.88;5072620;27;66247;-37
2021/09/07 09:10:27;;;;;;;154.73;49.42;;;;;;;33.56;59.26;100362.91;5082247;27;70139;-37
2021/09/07 09:13:09;;;;;;;167.50;51.72;;;;;;;33.68;58.78;100371.75;5061045;27;65372;-39
2021/09/07 09:16:05;;;;;;;256.58;83.75;;;;;;;33.53;59.56;100366.13;5071430;27;70144;-37
2021/09/07 09:18:47;;;;;;;176.80;50.88;;;;;;;33.75;59.56;100390.63;5073533;27;65787;-38
2021/09/07 09:21:32;;;;;;;111.32;35.35;;;;;;;33.73;59.54;100409.91;5079873;27;69831;-38
2021/09/07 09:24:17;;;;;;;111.63;30.40;;;;;;;33.51;59.61;100365.53;5072045;27;66137;-38
2021/09/07 09:26:59;;;;;;;62.35;22.17;;;;;;;33.73;58.96;100403.66;5079150;27;70180;-37
2021/09/07 09:29:37;;;;;;;38.83;16.75;;;;;;;33.68;58.60;100412.56;5067750;27;66718;-38
2021/09/07 09:32:13;;;;;;;17.42;14.00;;;;;;;33.66;58.18;100420.19;5062691;27;70046;-37
2021/09/07 09:34:47;;;;;;;14.35;12.85;;;;;;;33.57;57.54;100427.09;5078094;27;66386;-36
2021/09/07 09:37:22;;;;;;;19.73;13.43;;;;;;;33.50;58.22;100431.88;5083463;27;69155;-37
2021/09/07 09:39:54;;;;;;;14.75;13.15;;;;;;;33.41;58.18;100444.25;5078665;27;65652;-38
2021/09/07 09:42:34;;;;;;;11.25;10.25;;;;;;;33.22;58.52;100441.75;5085512;27;70328;-39
2021/09/07 09:45:11;;;;;;;9.75;8.70;;;;;;;33.17;58.39;100454.44;5081866;27;66034;-37
2021/09/07 09:47:56;;;;;;;10.15;9.07;;;;;;;32.67;58.63;100374.50;5081029;27;70227;-38
2021/09/07 09:50:31;;;;;;;10.18;9.38;;;;;;;33.12;59.44;100436.16;5073519;27;66347;-38
2021/09/07 09:53:04;;;;;;;8.57;7.88;;;;;;;33.13;59.19;100454.13;5081055;27;70173;-39
2021/09/07 09:55:37;;;;;;;8.15;7.38;;;;;;;33.15;59.11;100468.25;5087356;27;65747;-38
2021/09/07 09:58:10;;;;;;;7.50;6.82;;;;;;;33.16;59.21;100478.09;5074932;27;69404;-38
2021/09/07 10:00:46;;;;;;;7.88;6.95;;;;;;;33.17;59.46;100482.44;5074280;27;66250;-38
2021/09/07 10:03:19;;;;;;;7.70;7.10;;;;;;;33.13;60.05;100470.44;5079793;27;70077;-38
2021/09/07 10:05:53;;;;;;;7.07;6.57;;;;;;;33.10;60.73;100465.47;5077340;27;65401;-39
2021/09/07 10:08:26;;;;;;;6.70;6.10;;;;;;;33.08;60.63;100448.59;5072758;27;69933;-38
2021/09/07 10:11:22;;;;;;;6.78;6.38;;;;;;;32.73;60.13;100406.09;5079494;27;66355;-37
2021/09/07 10:13:59;;;;;;;6.68;6.07;;;;;;;33.00;60.86;100454.44;5084920;27;69192;-37
2021/09/07 10:19:36;;;;;;;9.20;8.32;;;;;;;32.89;60.16;100481.38;5075146;27;69987;-38
2021/09/07 10:25:00;;;;;;;8.70;8.10;;;;;;;32.86;61.30;100505.50;5073838;27;70438;-39
2021/09/07 10:28:11;;;;;;;9.70;8.40;;;;;;;32.72;61.61;100523.97;5080261;27;65645;-37
2021/09/07 10:31:22;;;;;;;9.95;8.10;;;;;;;32.79;61.42;100527.38;5040653;27;69110;-37
2021/09/07 10:34:01;;;;;;;12.20;8.68;;;;;;;32.86;61.12;100530.75;5076154;27;66702;-37
2021/09/07 10:36:37;;;;;;;17.70;8.30;;;;;;;32.90;61.05;100520.22;5078688;27;70845;-37
2021/09/07 10:39:36;;;;;;;8.80;7.75;;;;;;;32.85;61.21;100507.38;5080901;27;66069;-37
2021/09/07 10:42:14;;;;;;;9.23;7.60;;;;;;;32.92;61.13;100510.78;5081475;27;70603;-37
2021/09/07 10:45:00;;;;;;;10.15;9.07;;;;;;;32.87;61.33;100521.53;5075712;27;65960;-37
2021/09/07 10:47:44;;;;;;;12.80;8.38;;;;;;;32.89;61.53;100530.28;5075839;27;68889;-37
2021/09/07 10:50:57;;;;;;;10.55;7.97;;;;;;;32.87;61.59;100521.53;4986075;27;4161326;-38
2021/09/07 10:53:31;;;;;;;8.23;7.45;;;;;;;32.90;61.40;100525.66;5098272;27;70153;-38
2021/09/07 10:56:30;;;;;;;11.40;8.40;;;;;;;32.84;61.80;100516.59;5085414;27;65765;-37
2021/09/07 10:59:03;;;;;;;9.27;8.38;;;;;;;32.87;61.53;100521.53;5078074;27;70486;-38
2021/09/07 11:01:36;;;;;;;8.55;8.05;;;;;;;32.89;61.72;100519.41;5079289;27;65641;-38
2021/09/07 11:04:31;;;;;;;9.13;8.32;;;;;;;32.83;61.99;100517.66;5094025;27;70078;-38
2021/09/07 11:07:36;;;;;;;9.18;8.43;;;;;;;32.78;62.17;100531.16;5100748;27;66331;-38
2021/09/07 11:10:18;;;;;;;9.18;8.43;;;;;;;32.88;61.99;100539.50;5075655;27;69241;-38
2021/09/07 11:12:52;;;;;;;8.63;8.10;;;;;;;32.70;62.22;100509.78;5089164;27;65783;-37
2021/09/07 11:15:27;;;;;;;10.05;9.38;;;;;;;32.86;62.56;100547.06;5090832;27;69452;-38
2021/09/07 11:18:08;;;;;;;10.00;9.13;;;;;;;32.32;63.83;100478.63;5101986;27;66268;-37
2021/09/07 11:20:49;;;;;;;11.02;8.05;;;;;;;32.20;63.54;100486.75;5101211;27;70878;-37
2021/09/07 11:23:31;;;;;;;7.45;6.82;;;;;;;32.46;63.75;100566.91;5102697;27;66491;-37
2021/09/07 11:26:06;;;;;;;7.68;6.82;;;;;;;32.16;64.00;100547.19;5086015;27;70003;-37
2021/09/07 11:28:49;;;;;;;6.82;6.40;;;;;;;32.20;63.60;100554.59;5095386;27;66578;-37
2021/09/07 11:31:22;;;;;;;13.75;8.00;;;;;;;32.32;64.00;100589.91;5086840;27;70436;-36
2021/09/07 11:33:54;;;;;;;15.25;7.35;;;;;;;32.23;63.94;100586.72;5078038;27;66421;-37
2021/09/07 11:36:26;;;;;;;24.52;7.60;;;;;;;32.17;65.58;100598.50;5089894;27;68687;-37
2021/09/07 11:38:59;;;;;;;9.60;7.57;;;;;;;32.15;65.54;100605.22;5095224;27;66131;-37
2021/09/07 11:41:32;;;;;;;9.75;6.40;;;;;;;32.13;65.58;100607.38;5074345;27;70495;-37
2021/09/07 11:44:05;;;;;;;20.95;6.88;;;;;;;32.20;65.39;100602.63;5090833;27;66310;-37
2021/09/07 11:46:39;;;;;;;13.07;6.32;;;;;;;32.26;65.13;100617.97;5094873;27;70123;-37
2021/09/07 11:49:15;;;;;;;15.05;5.97;;;;;;;32.33;64.57;100615.97;5089622;27;66099;-37
2021/09/07 11:51:48;;;;;;;6.25;5.50;;;;;;;32.37;65.19;100609.00;5093924;27;69221;-37
2021/09/07 11:54:20;;;;;;;6.40;5.75;;;;;;;32.42;64.38;100611.81;5093188;27;66084;-37
2021/09/07 11:56:59;;;;;;;7.07;5.72;;;;;;;32.40;65.11;100605.84;5069457;28;69753;-37
2021/09/07 11:59:32;;;;;;;7.43;5.38;;;;;;;32.46;64.87;100604.91;5075700;27;66311;-38
2021/09/07 12:02:10;;;;;;;7.25;5.30;;;;;;;32.29;65.14;100590.38;5073147;28;70225;-36
2021/09/07 12:05:00;;;;;;;5.85;5.38;;;;;;;32.23;64.31;100586.72;5072661;28;66202;-37
2021/09/07 12:07:33;;;;;;;7.95;5.47;;;;;;;32.40;63.06;100624.84;5072430;28;70110;-37
2021/09/07 12:10:09;;;;;;;6.28;5.68;;;;;;;32.35;61.88;100627.44;5079303;28;66484;-37
2021/09/07 12:12:41;;;;;;;8.10;5.40;;;;;;;32.31;60.96;100619.97;5079087;28;70277;-42
2021/09/07 12:15:17;;;;;;;22.98;6.63;;;;;;;32.23;60.40;100632.00;5078942;28;66526;-41
2021/09/07 12:17:57;;;;;;;14.43;5.38;;;;;;;32.08;59.50;100637.09;5078773;27;70191;-42
2021/09/07 12:20:30;;;;;;;9.23;5.35;;;;;;;31.95;58.70;100638.13;5078343;28;65966;-41